createdAt,value
2019-05-15T00:01:20.293Z,1.27
2019-05-15T00:03:49.955Z,1.10
2019-05-15T00:06:19.516Z,1.40
2019-05-15T00:08:49.170Z,1.20
2019-05-15T00:11:19.221Z,1.20
2019-05-15T00:13:49.102Z,1.57
2019-05-15T00:16:18.658Z,1.60
2019-05-15T00:18:48.418Z,1.43
2019-05-15T00:21:38.286Z,1.37
2019-05-15T00:24:12.982Z,1.10
2019-05-15T00:26:39.404Z,1.50
2019-05-15T00:29:15.636Z,1.07
2019-05-15T00:31:40.347Z,1.10
2019-05-15T00:34:12.869Z,1.50
2019-05-15T00:36:41.257Z,1.43
2019-05-15T00:39:10.886Z,1.37
2019-05-15T00:41:50.364Z,1.23
2019-05-15T00:44:30.744Z,1.50
2019-05-15T00:47:00.324Z,1.27
2019-05-15T00:49:29.931Z,1.67
2019-05-15T00:51:59.554Z,1.33
2019-05-15T00:54:29.150Z,1.53
2019-05-15T00:56:58.732Z,1.23
2019-05-15T00:59:30.038Z,1.30
2019-05-15T01:01:59.576Z,1.10
2019-05-15T01:04:29.159Z,1.23
2019-05-15T01:06:58.988Z,1.30
2019-05-15T01:09:29.209Z,1.00
2019-05-15T01:11:59.044Z,1.40
2019-05-15T01:14:28.597Z,1.53
2019-05-15T01:16:58.312Z,1.30
2019-05-15T01:19:28.761Z,1.13
2019-05-15T01:21:58.799Z,1.43
2019-05-15T01:24:28.460Z,1.27
2019-05-15T01:26:58.484Z,1.20
2019-05-15T01:29:40.994Z,1.20
2019-05-15T01:31:59.458Z,1.20
2019-05-15T01:34:29.490Z,1.40
2019-05-15T01:36:59.285Z,1.27
2019-05-15T01:39:29.147Z,1.73
2019-05-15T01:41:58.941Z,1.17
2019-05-15T01:44:29.397Z,1.20
2019-05-15T01:46:59.168Z,1.20
2019-05-15T01:49:28.699Z,1.23
2019-05-15T01:52:18.768Z,1.40
2019-05-15T01:54:48.841Z,1.70
2019-05-15T01:57:19.034Z,1.37
2019-05-15T01:59:57.317Z,1.60
2019-05-15T02:02:19.807Z,1.40
2019-05-15T02:04:49.404Z,1.30
2019-05-15T02:07:18.984Z,1.40
2019-05-15T02:09:49.172Z,1.37
2019-05-15T02:12:19.209Z,1.70
2019-05-15T02:14:48.834Z,1.50
2019-05-15T02:17:18.948Z,1.63
2019-05-15T02:19:48.763Z,1.47
2019-05-15T02:22:18.948Z,1.23
2019-05-15T02:24:48.759Z,1.70
2019-05-15T02:27:18.796Z,1.50
2019-05-15T02:29:49.293Z,1.40
2019-05-15T02:32:19.428Z,1.20
2019-05-15T02:34:50.112Z,1.63
2019-05-15T02:37:19.989Z,1.60
2019-05-15T02:39:49.782Z,1.40
2019-05-15T02:42:19.495Z,1.93
2019-05-15T02:44:50.205Z,1.60
2019-05-15T02:47:20.282Z,1.53
2019-05-15T02:49:49.930Z,1.40
2019-05-15T02:52:20.080Z,1.47
2019-05-15T02:54:50.090Z,1.60
2019-05-15T02:57:19.729Z,1.17
2019-05-15T02:59:49.873Z,1.60
2019-05-15T03:02:19.698Z,2.00
2019-05-15T03:04:49.373Z,1.40
2019-05-15T03:07:19.421Z,1.50
2019-05-15T03:09:49.622Z,1.60
2019-05-15T03:12:19.905Z,1.67
2019-05-15T03:14:50.000Z,1.93
2019-05-15T03:17:19.749Z,1.53
2019-05-15T03:20:10.395Z,1.67
2019-05-15T03:22:40.629Z,1.53
2019-05-15T03:25:11.224Z,1.90
2019-05-15T03:27:41.363Z,2.00
2019-05-15T03:30:14.353Z,2.50
2019-05-15T03:32:52.461Z,1.80
2019-05-15T03:35:15.409Z,2.20
2019-05-15T03:37:44.921Z,1.97
2019-05-15T03:40:14.695Z,1.93
2019-05-15T03:42:44.299Z,2.20
2019-05-15T03:45:14.178Z,1.83
2019-05-15T03:47:43.759Z,1.30
2019-05-15T03:50:13.448Z,1.50
2019-05-15T03:52:43.114Z,1.60
2019-05-15T03:55:12.938Z,1.90
2019-05-15T03:57:42.540Z,1.50
2019-05-15T04:00:12.385Z,1.50
2019-05-15T04:02:41.949Z,1.50
2019-05-15T04:05:12.404Z,1.67
2019-05-15T04:07:42.220Z,2.10
2019-05-15T04:10:30.893Z,1.70
2019-05-15T04:13:11.822Z,2.00
2019-05-15T04:15:41.436Z,1.90
2019-05-15T04:18:11.008Z,1.60
2019-05-15T04:20:41.060Z,1.63
2019-05-15T04:23:10.923Z,1.90
2019-05-15T04:25:41.629Z,1.70
2019-05-15T04:28:13.467Z,2.07
2019-05-15T04:30:43.022Z,1.80
2019-05-15T04:33:12.640Z,1.73
2019-05-15T04:35:42.200Z,1.77
2019-05-15T04:38:11.763Z,2.00
2019-05-15T04:40:41.341Z,2.20
2019-05-15T04:43:11.317Z,1.70
2019-05-15T04:45:40.956Z,2.00
2019-05-15T04:48:10.741Z,2.00
2019-05-15T04:50:40.569Z,1.90
2019-05-15T04:53:11.030Z,1.70
2019-05-15T04:55:41.013Z,1.67
2019-05-15T04:58:10.916Z,2.23
2019-05-15T05:00:51.556Z,2.17
2019-05-15T05:03:21.445Z,1.80
2019-05-15T05:05:51.376Z,2.00
2019-05-15T05:08:21.278Z,1.97
2019-05-15T05:10:51.233Z,2.00
2019-05-15T05:13:20.811Z,2.30
2019-05-15T05:15:50.752Z,2.30
2019-05-15T05:18:20.531Z,2.10
2019-05-15T05:20:50.091Z,2.60
2019-05-15T05:23:19.701Z,2.20
2019-05-15T05:25:49.595Z,2.07
2019-05-15T05:28:38.320Z,2.30
2019-05-15T05:31:08.347Z,2.30
2019-05-15T05:33:38.369Z,2.23
2019-05-15T05:36:08.114Z,2.20
2019-05-15T05:38:38.682Z,2.37
2019-05-15T05:41:08.913Z,2.10
2019-05-15T05:43:38.703Z,2.23
2019-05-15T05:46:10.615Z,2.50
2019-05-15T05:48:40.318Z,2.20
2019-05-15T05:51:09.973Z,2.20
2019-05-15T05:53:39.734Z,2.83
2019-05-15T05:56:09.525Z,2.80
2019-05-15T05:58:39.287Z,2.90
2019-05-15T06:01:28.342Z,2.70
2019-05-15T06:03:58.399Z,2.97
2019-05-15T06:06:29.232Z,2.33
2019-05-15T06:08:58.980Z,2.43
2019-05-15T06:11:28.628Z,2.70
2019-05-15T06:13:58.548Z,3.23
2019-05-15T06:16:28.484Z,2.83
2019-05-15T06:18:58.733Z,2.67
2019-05-15T06:21:28.621Z,3.23
2019-05-15T06:24:04.546Z,3.10
2019-05-15T06:26:29.613Z,3.07
2019-05-15T06:28:59.211Z,3.30
2019-05-15T06:31:28.795Z,3.57
2019-05-15T06:33:58.488Z,3.10
2019-05-15T06:36:28.862Z,2.63
2019-05-15T06:38:59.169Z,3.10
2019-05-15T06:41:28.855Z,2.97
2019-05-15T06:43:58.907Z,3.10
2019-05-15T06:46:28.670Z,3.17
2019-05-15T06:49:18.004Z,2.67
2019-05-15T06:51:48.701Z,3.20
2019-05-15T06:54:19.015Z,3.00
2019-05-15T06:57:09.151Z,3.77
2019-05-15T06:59:39.093Z,2.87
2019-05-15T07:02:10.199Z,3.43
2019-05-15T07:04:39.844Z,3.70
2019-05-15T07:07:11.250Z,3.07
2019-05-15T07:09:40.643Z,3.53
2019-05-15T07:12:12.567Z,3.33
2019-05-15T07:14:42.184Z,2.87
2019-05-15T07:17:11.778Z,2.90
2019-05-15T07:19:41.419Z,2.93
2019-05-15T07:22:10.988Z,3.03
2019-05-15T07:24:40.554Z,2.90
2019-05-15T07:27:12.316Z,2.90
2019-05-15T07:29:41.976Z,3.43
2019-05-15T07:32:11.779Z,3.10
2019-05-15T07:34:41.371Z,3.10
2019-05-15T07:37:10.954Z,3.03
2019-05-15T07:39:40.601Z,3.50
2019-05-15T07:42:10.235Z,3.10
2019-05-15T07:44:39.842Z,3.30
2019-05-15T07:47:09.491Z,3.03
2019-05-15T07:49:39.091Z,3.80
2019-05-15T07:52:08.813Z,3.37
2019-05-15T07:54:38.527Z,3.07
2019-05-15T07:57:08.956Z,3.07
2019-05-15T07:59:39.386Z,3.27
2019-05-15T08:02:09.004Z,3.00
2019-05-15T08:04:39.620Z,3.00
2019-05-15T08:07:09.303Z,2.80
2019-05-15T08:09:39.213Z,2.97
2019-05-15T08:12:09.026Z,3.13
2019-05-15T08:14:38.946Z,2.90
2019-05-15T08:17:08.827Z,3.03
2019-05-15T08:19:38.626Z,3.07
2019-05-15T08:22:11.247Z,2.90
2019-05-15T08:24:40.942Z,3.10
2019-05-15T08:27:10.580Z,3.07
2019-05-15T08:29:40.243Z,3.00
2019-05-15T08:32:09.885Z,3.13
2019-05-15T08:34:40.870Z,3.40
2019-05-15T08:37:10.511Z,3.40
2019-05-15T08:39:40.111Z,3.30
2019-05-15T08:42:09.709Z,3.13
2019-05-15T08:44:58.444Z,3.80
2019-05-15T08:47:29.757Z,3.57
2019-05-15T08:49:59.571Z,3.40
2019-05-15T08:52:29.178Z,3.47
2019-05-15T08:54:59.257Z,3.83
2019-05-15T08:57:29.078Z,3.90
2019-05-15T08:59:58.721Z,3.60
2019-05-15T09:02:28.758Z,3.33
2019-05-15T09:04:59.862Z,3.27
2019-05-15T09:07:29.473Z,3.70
2019-05-15T09:09:59.098Z,3.63
2019-05-15T09:12:29.442Z,3.50
2019-05-15T09:14:59.226Z,3.70
2019-05-15T09:17:28.844Z,3.50
2019-05-15T09:19:58.906Z,3.13
2019-05-15T09:22:29.187Z,3.47
2019-05-15T09:24:59.098Z,3.20
2019-05-15T09:27:28.780Z,3.20
2019-05-15T09:29:59.209Z,3.83
2019-05-15T09:32:48.515Z,3.80
2019-05-15T09:35:27.711Z,3.83
2019-05-15T09:38:18.169Z,3.80
2019-05-15T09:40:50.368Z,6.30
2019-05-15T09:43:18.541Z,4.73
2019-05-15T09:45:49.414Z,4.10
2019-05-15T09:48:20.408Z,3.33
2019-05-15T09:50:50.046Z,3.93
2019-05-15T09:53:19.704Z,3.47
2019-05-15T09:55:49.954Z,3.83
2019-05-15T09:58:20.980Z,3.80
2019-05-15T10:00:53.463Z,3.57
2019-05-15T10:03:44.623Z,3.40
2019-05-15T10:06:14.416Z,3.73
2019-05-15T10:08:49.052Z,3.67
2019-05-15T10:11:20.172Z,3.47
2019-05-15T10:13:49.833Z,3.50
2019-05-15T10:16:20.047Z,3.07
2019-05-15T10:18:50.777Z,3.20
2019-05-15T10:21:21.050Z,3.30
2019-05-15T10:23:50.652Z,3.50
2019-05-15T10:26:20.333Z,3.47
2019-05-15T10:28:49.953Z,3.43
2019-05-15T10:31:19.846Z,3.30
2019-05-15T10:33:49.890Z,3.10
2019-05-15T10:36:19.572Z,4.33
2019-05-15T10:38:49.282Z,3.50
2019-05-15T10:41:19.103Z,3.30
2019-05-15T10:43:56.013Z,3.23
2019-05-15T10:46:20.065Z,3.43
2019-05-15T10:48:49.760Z,2.73
2019-05-15T10:51:19.850Z,3.47
2019-05-15T10:53:49.547Z,3.40
2019-05-15T10:56:19.282Z,3.13
2019-05-15T10:58:50.666Z,3.47
2019-05-15T11:01:20.179Z,3.30
2019-05-15T11:03:49.933Z,3.17
2019-05-15T11:06:19.608Z,3.30
2019-05-15T11:08:51.619Z,3.30
2019-05-15T11:11:20.564Z,3.10
2019-05-15T11:13:50.205Z,3.17
2019-05-15T11:16:21.226Z,3.23
2019-05-15T11:18:53.523Z,3.40
2019-05-15T11:21:22.486Z,3.07
2019-05-15T11:23:52.107Z,3.10
2019-05-15T11:26:21.832Z,3.47
2019-05-15T11:28:51.636Z,3.50
2019-05-15T11:31:24.607Z,3.17
2019-05-15T11:33:52.555Z,3.63
2019-05-15T11:36:43.581Z,3.30
2019-05-15T11:39:18.076Z,3.27
2019-05-15T11:41:45.689Z,3.20
2019-05-15T11:44:15.288Z,3.50
2019-05-15T11:46:44.870Z,3.83
2019-05-15T11:49:14.535Z,4.07
2019-05-15T11:51:44.146Z,3.90
2019-05-15T11:54:13.734Z,6.00
2019-05-15T11:56:43.366Z,3.40
2019-05-15T11:59:13.008Z,3.60
2019-05-15T12:01:42.606Z,3.47
2019-05-15T12:04:26.737Z,3.13
2019-05-15T12:06:56.983Z,3.37
2019-05-15T12:09:14.699Z,2.97
2019-05-15T12:11:44.353Z,2.90
2019-05-15T12:14:13.961Z,2.90
2019-05-15T12:17:01.185Z,3.27
2019-05-15T12:19:17.393Z,3.00
2019-05-15T12:21:50.428Z,2.87
2019-05-15T12:24:17.464Z,3.00
2019-05-15T12:26:48.907Z,3.00
2019-05-15T12:29:18.338Z,4.17
2019-05-15T12:31:49.562Z,2.97
2019-05-15T12:34:19.429Z,2.67
2019-05-15T12:36:56.663Z,2.80
2019-05-15T12:39:22.166Z,2.93
2019-05-15T13:02:01.808Z,2.43
2019-05-15T13:04:31.420Z,2.60
2019-05-15T13:07:12.907Z,3.70
2019-05-15T13:09:32.456Z,3.90
2019-05-15T13:12:02.012Z,2.60
2019-05-15T13:14:31.660Z,2.63
2019-05-15T13:17:01.336Z,2.60
2019-05-15T13:19:31.491Z,3.23
2019-05-15T13:22:01.111Z,2.30
2019-05-15T13:24:30.796Z,2.27
2019-05-15T13:27:00.473Z,2.65
2019-05-15T13:29:30.104Z,2.40
2019-05-15T13:32:18.762Z,2.20
2019-05-15T13:34:48.970Z,2.00
2019-05-15T13:37:26.733Z,2.15
2019-05-15T13:39:50.031Z,1.95
2019-05-15T13:42:19.662Z,2.10
2019-05-15T13:44:49.246Z,2.20
2019-05-15T13:47:18.931Z,2.47
2019-05-15T13:49:48.481Z,2.55
2019-05-15T13:52:18.816Z,2.05
2019-05-15T13:54:48.644Z,2.60
2019-05-15T13:57:18.251Z,2.08
2019-05-15T13:59:48.389Z,2.40
2019-05-15T14:02:18.695Z,2.20
2019-05-15T14:04:49.053Z,1.90
2019-05-15T14:07:19.364Z,2.08
2019-05-15T14:09:49.329Z,2.12
2019-05-15T14:12:19.246Z,2.03
2019-05-15T14:14:49.162Z,1.60
2019-05-15T14:17:20.203Z,2.00
2019-05-15T14:19:49.936Z,2.10
2019-05-15T14:22:21.736Z,2.27
2019-05-15T14:24:58.856Z,2.20
2019-05-15T14:27:28.744Z,2.43
2019-05-15T14:29:58.589Z,2.20
2019-05-15T14:32:38.346Z,2.13
2019-05-15T14:35:02.412Z,2.40
2019-05-15T14:37:32.273Z,2.30
2019-05-15T14:40:03.310Z,2.40
2019-05-15T14:42:33.303Z,2.60
2019-05-15T14:45:08.618Z,2.60
2019-05-15T14:47:39.515Z,2.57
2019-05-15T14:50:32.017Z,2.00
2019-05-15T14:53:02.901Z,2.30
2019-05-15T14:55:34.334Z,2.77
2019-05-15T14:58:04.258Z,2.30
2019-05-15T15:00:35.093Z,2.40
2019-05-15T15:03:05.465Z,1.87
2019-05-15T15:05:35.200Z,2.53
2019-05-15T15:08:17.354Z,2.77
2019-05-15T15:10:38.240Z,1.80
2019-05-15T15:13:09.233Z,2.40
2019-05-15T15:15:41.837Z,2.00
2019-05-15T15:18:10.552Z,2.43
2019-05-15T15:20:40.274Z,2.57
2019-05-15T15:23:12.924Z,2.40
2019-05-15T15:25:42.567Z,2.17
2019-05-15T15:28:12.275Z,2.47
2019-05-15T15:30:42.413Z,3.17
2019-05-15T15:33:12.129Z,3.17
2019-05-15T15:35:41.845Z,2.83
2019-05-15T15:38:13.442Z,2.83
2019-05-15T15:40:42.969Z,2.43
2019-05-15T15:43:17.417Z,2.63
2019-05-15T15:45:48.447Z,3.60
2019-05-15T15:48:19.302Z,2.23
2019-05-15T15:50:49.127Z,2.90
2019-05-15T15:53:19.183Z,2.60
2019-05-15T15:55:50.555Z,3.37
2019-05-15T15:58:20.621Z,3.07
2019-05-15T16:00:50.222Z,3.23
2019-05-15T16:03:19.897Z,3.53
2019-05-15T16:05:49.551Z,3.60
2019-05-15T16:08:19.210Z,2.80
2019-05-15T16:10:48.844Z,3.57
2019-05-15T16:13:20.683Z,2.60
2019-05-15T16:15:52.007Z,6.80
2019-05-15T16:18:21.705Z,5.20
2019-05-15T16:20:58.065Z,3.20
2019-05-15T16:23:49.281Z,5.97
2019-05-15T16:26:15.303Z,6.23
2019-05-15T16:28:44.991Z,5.30
2019-05-15T16:31:34.021Z,7.23
2019-05-15T16:34:11.655Z,3.03
2019-05-15T16:36:41.410Z,2.77
2019-05-15T16:39:45.631Z,3.60
2019-05-15T16:42:22.538Z,3.37
2019-05-15T16:45:20.001Z,3.00
2019-05-15T16:47:55.527Z,3.47
2019-05-15T16:50:25.360Z,8.87
2019-05-15T16:52:58.435Z,7.73
2019-05-15T16:55:31.067Z,3.50
2019-05-15T16:58:04.431Z,4.17
2019-05-15T17:00:34.291Z,3.60
2019-05-15T17:03:10.107Z,3.33
2019-05-15T17:05:58.758Z,5.27
2019-05-15T17:08:33.638Z,4.80
2019-05-15T17:11:03.498Z,2.97
2019-05-15T17:13:35.698Z,3.43
2019-05-15T17:16:18.746Z,3.73
2019-05-15T17:18:50.457Z,4.50
2019-05-15T17:21:39.446Z,4.20
2019-05-15T17:24:09.501Z,4.00
2019-05-15T17:26:43.501Z,3.33
2019-05-15T17:29:24.677Z,3.60
2019-05-15T17:32:01.215Z,6.63
2019-05-15T17:34:31.030Z,3.90
2019-05-15T17:37:04.263Z,3.30
2019-05-15T17:39:40.844Z,3.10
2019-05-15T17:42:05.587Z,3.17
2019-05-15T17:44:37.777Z,4.57
2019-05-15T17:47:10.824Z,3.30
2019-05-15T17:50:18.886Z,5.87
2019-05-15T17:52:49.143Z,8.43
2019-05-15T17:56:07.226Z,4.80
2019-05-15T17:58:38.154Z,3.73
2019-05-15T18:01:09.251Z,5.43
2019-05-15T18:03:39.409Z,3.50
2019-05-15T18:06:09.158Z,4.93
2019-05-15T18:08:39.199Z,3.27
2019-05-15T18:11:12.050Z,2.83
2019-05-15T18:13:41.899Z,4.93
2019-05-15T18:16:14.006Z,3.63
2019-05-15T18:18:43.805Z,3.97
2019-05-15T18:21:18.395Z,3.37
2019-05-15T18:24:09.244Z,3.37
2019-05-15T18:26:41.167Z,4.73
2019-05-15T18:29:10.847Z,5.57
2019-05-15T18:31:59.547Z,3.73
2019-05-15T18:34:29.177Z,6.40
2019-05-15T18:36:58.868Z,3.17
2019-05-15T18:39:29.193Z,6.23
2019-05-15T18:41:59.078Z,5.20
2019-05-15T18:44:48.293Z,4.00
2019-05-15T18:47:18.798Z,3.50
2019-05-15T18:50:03.750Z,4.23
2019-05-15T18:52:28.563Z,3.27
2019-05-15T18:54:55.516Z,3.53
2019-05-15T18:57:25.264Z,3.53
2019-05-15T18:59:54.903Z,3.40
2019-05-15T19:02:24.984Z,10.23
2019-05-15T19:04:58.532Z,3.30
2019-05-15T19:07:39.705Z,4.77
2019-05-15T19:10:14.364Z,5.47
2019-05-15T19:12:54.548Z,4.67
2019-05-15T19:15:28.614Z,5.23
2019-05-15T19:18:01.218Z,4.80
2019-05-15T19:20:33.637Z,4.20
2019-05-15T19:23:03.387Z,4.20
2019-05-15T19:25:36.351Z,3.97
2019-05-15T19:28:08.476Z,4.83
2019-05-15T19:30:40.671Z,3.73
2019-05-15T19:33:37.063Z,5.70
2019-05-15T19:36:02.291Z,5.03
2019-05-15T19:38:37.638Z,5.30
2019-05-15T19:41:09.699Z,9.60
2019-05-15T19:43:42.452Z,8.83
2019-05-15T19:46:12.231Z,7.30
2019-05-15T19:48:42.350Z,6.33
2019-05-15T19:51:12.217Z,6.70
2019-05-15T19:53:43.574Z,5.17
2019-05-15T19:56:15.869Z,5.00
2019-05-15T19:58:47.985Z,6.10
2019-05-15T20:01:20.820Z,13.63
2019-05-15T20:03:53.227Z,5.07
2019-05-15T20:06:23.330Z,4.73
2019-05-15T20:08:53.521Z,4.53
2019-05-15T20:11:27.888Z,5.70
2019-05-15T20:13:58.307Z,5.30
2019-05-15T20:16:29.696Z,4.67
2019-05-15T20:18:59.507Z,4.90
2019-05-15T20:21:49.744Z,6.33
2019-05-15T20:24:19.835Z,5.93
2019-05-15T20:26:49.551Z,8.80
2019-05-15T20:29:19.257Z,8.07
2019-05-15T20:31:49.169Z,5.33
2019-05-15T20:34:21.948Z,6.33
2019-05-15T20:36:51.647Z,7.33
2019-05-15T20:39:21.429Z,5.80
2019-05-15T20:41:51.206Z,6.13
2019-05-15T20:44:20.890Z,6.13
2019-05-15T20:46:51.082Z,5.40
2019-05-15T20:49:20.839Z,6.60
2019-05-15T20:51:50.645Z,6.47
2019-05-15T20:54:20.319Z,6.53
2019-05-15T20:56:50.069Z,7.27
2019-05-15T20:59:19.775Z,7.13
2019-05-15T21:01:50.898Z,6.80
2019-05-15T21:04:23.278Z,6.80
2019-05-15T21:06:52.106Z,5.63
2019-05-15T21:09:21.994Z,6.53
2019-05-15T21:11:51.685Z,6.10
2019-05-15T21:14:21.362Z,6.10
2019-05-15T21:16:51.000Z,5.67
2019-05-15T21:19:20.733Z,5.50
2019-05-15T21:21:50.371Z,5.87
2019-05-15T21:24:20.086Z,5.73
2019-05-15T21:26:49.769Z,6.47
2019-05-15T21:29:19.480Z,5.90
2019-05-15T21:31:49.235Z,5.43
2019-05-15T21:34:33.400Z,6.50
2019-05-15T21:36:52.114Z,6.03
2019-05-15T21:39:22.977Z,6.23
2019-05-15T21:41:52.691Z,6.30
2019-05-15T21:44:22.356Z,6.07
2019-05-15T21:46:52.031Z,6.77
2019-05-15T21:49:21.756Z,6.30
2019-05-15T21:51:51.458Z,6.87
2019-05-15T21:54:21.688Z,7.33
2019-05-15T21:56:51.434Z,7.03
2019-05-15T21:59:21.104Z,7.53
2019-05-15T22:01:50.805Z,7.87
2019-05-15T22:04:20.476Z,7.97
2019-05-15T22:06:53.370Z,8.93
2019-05-15T22:09:23.470Z,8.80
2019-05-15T22:11:57.196Z,9.00
2019-05-15T22:14:24.512Z,8.50
2019-05-15T22:16:54.144Z,7.93
2019-05-15T22:19:23.873Z,8.37
2019-05-15T22:21:53.552Z,8.17
2019-05-15T22:24:23.359Z,8.67
2019-05-15T22:27:12.272Z,8.80
2019-05-15T22:29:43.038Z,8.17
2019-05-15T22:32:31.714Z,8.50
2019-05-15T22:35:09.736Z,8.17
2019-05-15T22:37:52.455Z,8.57
2019-05-15T22:40:41.236Z,7.27
2019-05-15T22:43:11.004Z,9.27
2019-05-15T22:45:40.634Z,8.93
2019-05-15T22:48:10.380Z,9.67
2019-05-15T22:50:40.055Z,10.20
2019-05-15T22:53:11.101Z,8.83
2019-05-15T22:55:43.069Z,9.77
2019-05-15T22:58:13.049Z,8.93
2019-05-15T23:00:42.916Z,10.13
2019-05-15T23:03:12.529Z,10.03
2019-05-15T23:05:42.252Z,9.43
2019-05-15T23:08:11.876Z,9.67
2019-05-15T23:10:41.526Z,8.77
2019-05-15T23:13:12.865Z,9.57
2019-05-15T23:15:42.483Z,8.40
2019-05-15T23:18:13.358Z,9.67
2019-05-15T23:20:43.014Z,10.20
2019-05-15T23:23:14.600Z,9.93
2019-05-15T23:25:44.212Z,9.50
2019-05-15T23:28:13.939Z,10.23
2019-05-15T23:30:43.650Z,9.70
2019-05-15T23:33:13.285Z,9.00
2019-05-15T23:35:42.883Z,8.27
2019-05-15T23:38:12.526Z,8.73
2019-05-15T23:40:42.156Z,9.20
2019-05-15T23:43:11.983Z,8.20
2019-05-15T23:46:00.602Z,9.00
2019-05-15T23:48:30.292Z,9.17
2019-05-15T23:50:59.893Z,8.50
2019-05-15T23:53:29.536Z,8.43
2019-05-15T23:56:01.504Z,7.80
2019-05-15T23:58:31.172Z,7.47
